createdAt,value
2023-06-10T00:03:47.874Z,95.82
2023-06-10T00:07:50.757Z,97.49
2023-06-10T00:11:52.253Z,96.97
2023-06-10T00:15:53.712Z,96.26
2023-06-10T00:19:55.211Z,96.98
2023-06-10T00:23:58.064Z,96.78
2023-06-10T00:27:59.626Z,96.53
2023-06-10T00:32:01.230Z,96.25
2023-06-10T00:36:02.921Z,96.00
2023-06-10T00:40:07.104Z,95.94
2023-06-10T00:44:08.608Z,99.03
2023-06-10T00:48:10.820Z,100.00
2023-06-10T00:52:12.725Z,100.00
2023-06-10T00:56:15.642Z,100.00
2023-06-10T01:00:18.099Z,100.00
2023-06-10T01:04:19.552Z,100.00
2023-06-10T01:08:29.423Z,100.00
2023-06-10T01:12:40.171Z,100.00
2023-06-10T01:16:41.752Z,100.00
2023-06-10T01:20:44.466Z,100.00
2023-06-10T01:24:47.269Z,100.00
2023-06-10T01:28:52.559Z,100.00
2023-06-10T01:32:54.857Z,100.00
2023-06-10T01:36:59.147Z,100.00
2023-06-10T01:41:02.595Z,100.00
2023-06-10T01:45:05.101Z,100.00
2023-06-10T01:49:06.541Z,100.00
2023-06-10T01:53:07.989Z,100.00
2023-06-10T01:57:10.903Z,100.00
2023-06-10T02:01:12.519Z,100.00
2023-06-10T02:05:14.037Z,100.00
2023-06-10T02:09:15.618Z,100.00
2023-06-10T02:13:18.419Z,100.00
2023-06-10T02:17:19.948Z,100.00
2023-06-10T02:21:21.484Z,100.00
2023-06-10T02:25:22.932Z,100.00
2023-06-10T02:29:25.713Z,100.00
2023-06-10T02:33:27.277Z,100.00
2023-06-10T02:37:28.742Z,100.00
2023-06-10T02:41:30.192Z,100.00
2023-06-10T02:45:32.989Z,100.00
2023-06-10T02:49:34.463Z,100.00
2023-06-10T02:53:35.904Z,100.00
2023-06-10T02:57:37.361Z,100.00
2023-06-10T03:01:40.197Z,100.00
2023-06-10T03:05:41.644Z,100.00
2023-06-10T03:09:45.513Z,100.00
2023-06-10T03:13:47.385Z,100.00
2023-06-10T03:17:50.195Z,100.00
2023-06-10T03:22:09.982Z,100.00
2023-06-10T03:26:12.097Z,100.00
2023-06-10T03:30:14.022Z,100.00
2023-06-10T03:34:16.798Z,100.00
2023-06-10T03:38:18.269Z,100.00
2023-06-10T03:42:19.718Z,100.00
2023-06-10T03:46:21.209Z,100.00
2023-06-10T03:50:24.060Z,100.00
2023-06-10T03:54:25.540Z,100.00
2023-06-10T03:58:26.996Z,100.00
2023-06-10T04:02:28.511Z,100.00
2023-06-10T04:06:31.349Z,100.00
2023-06-10T04:10:32.785Z,100.00
2023-06-10T04:14:34.242Z,100.00
2023-06-10T04:18:35.679Z,100.00
2023-06-10T04:22:38.458Z,100.00
2023-06-10T04:26:39.942Z,100.00
2023-06-10T04:30:41.465Z,100.00
2023-06-10T04:34:42.901Z,100.00
2023-06-10T04:38:45.703Z,100.00
2023-06-10T04:42:47.184Z,100.00
2023-06-10T04:46:48.953Z,100.00
2023-06-10T04:50:50.573Z,100.00
2023-06-10T04:54:53.421Z,100.00
2023-06-10T04:58:54.877Z,100.00
2023-06-10T05:02:56.386Z,100.00
2023-06-10T05:06:57.953Z,100.00
2023-06-10T05:11:00.729Z,100.00
2023-06-10T05:15:02.202Z,100.00
2023-06-10T05:19:05.632Z,100.00
2023-06-10T05:23:09.480Z,100.00
2023-06-10T05:27:12.248Z,100.00
2023-06-10T05:31:13.723Z,100.00
2023-06-10T05:35:15.286Z,100.00
2023-06-10T05:39:16.741Z,99.91
2023-06-10T05:43:19.504Z,99.05
2023-06-10T05:47:21.062Z,98.27
2023-06-10T05:51:22.533Z,99.44
2023-06-10T05:55:24.021Z,95.11
2023-06-10T05:59:26.814Z,96.38
2023-06-10T06:03:28.283Z,97.69
2023-06-10T06:07:30.615Z,95.18
2023-06-10T06:11:32.114Z,93.38
2023-06-10T06:15:34.870Z,93.10
2023-06-10T06:19:36.504Z,89.75
2023-06-10T06:23:37.998Z,88.23
2023-06-10T06:27:39.792Z,89.54
2023-06-10T06:31:42.624Z,90.31
2023-06-10T06:35:44.144Z,88.23
2023-06-10T06:39:45.796Z,88.42
2023-06-10T06:43:47.299Z,87.28
2023-06-10T06:47:50.156Z,87.39
2023-06-10T06:51:51.656Z,86.48
2023-06-10T06:55:53.118Z,85.29
2023-06-10T06:59:54.554Z,85.79
2023-06-10T07:03:57.305Z,85.81
2023-06-10T07:07:58.803Z,82.75
2023-06-10T07:12:00.501Z,83.00
2023-06-10T07:16:02.226Z,81.39
2023-06-10T07:20:05.894Z,80.33
2023-06-10T07:24:07.723Z,81.08
2023-06-10T07:28:09.520Z,82.00
2023-06-10T07:32:11.017Z,81.48
2023-06-10T07:36:13.827Z,81.17
2023-06-10T07:40:15.303Z,78.85
2023-06-10T07:44:16.798Z,80.48
2023-06-10T07:48:18.405Z,79.05
2023-06-10T07:52:21.383Z,79.04
2023-06-10T07:56:23.016Z,78.48
2023-06-10T08:00:24.819Z,80.24
2023-06-10T08:04:26.435Z,78.78
2023-06-10T08:08:29.257Z,77.58
2023-06-10T08:12:30.895Z,77.10
2023-06-10T08:16:32.376Z,74.56
2023-06-10T08:20:33.865Z,76.04
2023-06-10T08:24:36.771Z,74.74
2023-06-10T08:28:38.495Z,73.15
2023-06-10T08:32:40.143Z,72.31
2023-06-10T08:36:41.656Z,70.03
2023-06-10T08:40:44.554Z,70.13
2023-06-10T08:44:47.552Z,67.70
2023-06-10T08:48:53.402Z,67.13
2023-06-10T08:52:58.175Z,68.17
2023-06-10T08:57:02.029Z,69.69
2023-06-10T09:01:03.573Z,69.13
2023-06-10T09:05:06.100Z,69.87
2023-06-10T09:09:08.131Z,69.62
2023-06-10T09:13:11.130Z,66.69
2023-06-10T09:17:12.749Z,67.58
2023-06-10T09:21:14.288Z,66.09
2023-06-10T09:25:15.866Z,66.77
2023-06-10T09:29:18.734Z,66.58
2023-06-10T09:33:20.163Z,67.88
2023-06-10T09:37:22.891Z,61.37
2023-06-10T09:41:33.052Z,52.31
2023-06-10T09:45:35.877Z,51.00
2023-06-10T09:49:38.746Z,55.07
2023-06-10T09:53:40.242Z,51.98
2023-06-10T09:57:41.699Z,50.73
2023-06-10T10:01:44.549Z,51.48
2023-06-10T10:05:46.259Z,51.02
2023-06-10T10:09:47.889Z,50.79
2023-06-10T10:13:50.683Z,52.21
2023-06-10T10:18:01.753Z,52.98
2023-06-10T10:22:09.242Z,53.11
2023-06-10T10:26:11.845Z,55.41
2023-06-10T10:30:15.382Z,53.53
2023-06-10T10:34:25.109Z,50.35
2023-06-10T10:38:27.167Z,50.12
2023-06-10T10:42:29.258Z,53.71
2023-06-10T10:46:31.087Z,53.40
2023-06-10T10:50:33.867Z,51.15
2023-06-10T10:54:36.611Z,51.73
2023-06-10T10:58:38.124Z,49.35
2023-06-10T11:02:42.862Z,49.11
2023-06-10T11:06:54.767Z,53.68
2023-06-10T11:10:56.302Z,53.44
2023-06-10T11:14:57.930Z,48.00
2023-06-10T11:18:59.379Z,49.54
2023-06-10T11:23:03.310Z,50.28
2023-06-10T11:27:16.499Z,49.91
2023-06-10T11:31:20.646Z,47.42
2023-06-10T11:35:24.669Z,45.01
2023-06-10T11:39:27.508Z,43.59
2023-06-10T11:43:30.863Z,43.81
2023-06-10T11:47:32.402Z,45.54
2023-06-10T11:51:36.066Z,44.31
2023-06-10T11:55:46.320Z,43.80
2023-06-10T11:59:47.894Z,45.01
2023-06-10T12:03:57.138Z,40.14
2023-06-10T12:08:11.659Z,39.03
2023-06-10T12:12:14.753Z,40.43
2023-06-10T12:16:16.482Z,38.24
2023-06-10T12:20:26.198Z,41.12
2023-06-10T12:24:27.642Z,41.67
2023-06-10T12:28:30.450Z,42.84
2023-06-10T12:32:39.873Z,44.68
2023-06-10T12:36:49.153Z,42.93
2023-06-10T12:40:51.280Z,40.44
2023-06-10T12:44:55.445Z,34.47
2023-06-10T12:48:56.915Z,34.29
2023-06-10T12:52:58.391Z,31.09
2023-06-10T12:56:59.874Z,29.83
2023-06-10T13:01:02.702Z,29.01
2023-06-10T13:05:04.590Z,34.49
2023-06-10T13:09:06.918Z,38.85
2023-06-10T13:13:08.399Z,41.35
2023-06-10T13:17:11.356Z,39.78
2023-06-10T13:21:13.004Z,35.99
2023-06-10T13:25:14.817Z,35.15
2023-06-10T13:29:16.441Z,34.90
2023-06-10T13:33:19.249Z,37.01
2023-06-10T13:37:20.796Z,37.17
2023-06-10T13:41:22.367Z,37.40
2023-06-10T13:45:23.896Z,36.31
2023-06-10T13:49:26.732Z,36.29
2023-06-10T13:53:28.198Z,35.76
2023-06-10T13:57:29.689Z,35.96
2023-06-10T14:01:31.252Z,26.97
2023-06-10T14:05:34.162Z,25.59
2023-06-10T14:09:35.825Z,28.82
2023-06-10T14:13:37.391Z,25.83
2023-06-10T14:17:38.910Z,28.26
2023-06-10T14:21:41.801Z,27.01
2023-06-10T14:25:43.424Z,27.45
2023-06-10T14:29:44.978Z,27.86
2023-06-10T14:33:46.488Z,26.03
2023-06-10T14:37:49.318Z,22.99
2023-06-10T14:41:50.772Z,22.20
2023-06-10T14:45:52.338Z,24.16
2023-06-10T14:49:54.077Z,22.50
2023-06-10T14:53:56.848Z,21.22
2023-06-10T14:57:58.286Z,24.10
2023-06-10T15:01:59.911Z,21.15
2023-06-10T15:06:01.578Z,22.11
2023-06-10T15:10:05.496Z,24.37
2023-06-10T15:14:06.845Z,25.69
2023-06-10T15:18:08.356Z,25.22
2023-06-10T15:22:10.007Z,29.59
2023-06-10T15:26:12.777Z,30.72
2023-06-10T15:30:14.568Z,31.94
2023-06-10T15:34:16.031Z,31.16
2023-06-10T15:38:17.508Z,32.05
2023-06-10T15:42:20.405Z,30.99
2023-06-10T15:46:22.093Z,32.00
2023-06-10T15:50:23.929Z,32.05
2023-06-10T15:54:25.378Z,29.82
2023-06-10T15:58:28.168Z,32.17
2023-06-10T16:02:29.702Z,34.54
2023-06-10T16:06:31.147Z,35.07
2023-06-10T16:10:32.594Z,35.44
2023-06-10T16:14:35.380Z,36.47
2023-06-10T16:18:36.836Z,37.67
2023-06-10T16:22:38.275Z,38.07
2023-06-10T16:26:39.736Z,39.27
2023-06-10T16:30:42.726Z,39.30
2023-06-10T16:34:45.236Z,39.48
2023-06-10T16:38:46.669Z,40.34
2023-06-10T16:42:48.094Z,40.55
2023-06-10T17:04:43.082Z,43.71
2023-06-10T17:08:44.558Z,43.95
2023-06-10T17:12:45.991Z,44.54
2023-06-10T17:16:47.471Z,44.55
2023-06-10T17:20:50.263Z,45.62
2023-06-10T17:24:51.702Z,45.61
2023-06-10T17:28:53.181Z,46.83
2023-06-10T17:32:54.776Z,47.49
2023-06-10T17:36:58.308Z,48.93
2023-06-10T17:40:59.783Z,49.92
2023-06-10T17:45:01.260Z,51.55
2023-06-10T17:49:02.730Z,52.21
2023-06-10T17:53:05.558Z,54.06
2023-06-10T17:57:07.123Z,54.77
2023-06-10T18:01:08.970Z,53.79
2023-06-10T18:05:10.968Z,55.79
2023-06-10T18:09:14.216Z,53.21
2023-06-10T18:13:16.162Z,53.44
2023-06-10T18:17:17.619Z,55.68
2023-06-10T18:21:19.220Z,58.15
2023-06-10T18:25:22.074Z,59.33
2023-06-10T18:29:23.538Z,62.33
2023-06-10T18:33:25.822Z,63.01
2023-06-10T18:37:27.361Z,64.13
2023-06-10T18:41:30.240Z,67.70
2023-06-10T18:45:31.944Z,68.00
2023-06-10T18:49:33.535Z,68.80
2023-06-10T18:53:35.135Z,71.64
2023-06-10T18:57:37.962Z,70.78
2023-06-10T19:01:39.537Z,74.26
2023-06-10T19:05:41.051Z,72.91
2023-06-10T19:09:42.552Z,75.59
2023-06-10T19:13:45.488Z,76.17
2023-06-10T19:17:46.988Z,75.46
2023-06-10T19:21:48.484Z,73.71
2023-06-10T19:25:49.917Z,75.29
2023-06-10T19:29:52.698Z,76.44
2023-06-10T19:33:54.153Z,77.63
2023-06-10T19:37:55.649Z,77.80
2023-06-10T19:41:57.110Z,81.63
2023-06-10T19:45:59.963Z,82.66
2023-06-10T19:50:01.579Z,84.36
2023-06-10T19:54:03.342Z,86.48
2023-06-10T19:58:04.817Z,88.40
2023-06-10T20:02:08.408Z,88.38
2023-06-10T20:06:09.911Z,88.76
2023-06-10T20:10:11.509Z,88.75
2023-06-10T20:14:13.772Z,88.52
2023-06-10T20:18:16.570Z,88.63
2023-06-10T20:22:18.152Z,87.31
2023-06-10T20:26:19.645Z,86.89
2023-06-10T20:30:21.112Z,85.97
2023-06-10T20:34:24.154Z,85.14
2023-06-10T20:38:25.634Z,84.10
2023-06-10T20:42:27.158Z,82.82
2023-06-10T20:46:28.767Z,81.80
2023-06-10T20:50:31.572Z,80.00
2023-06-10T20:54:33.039Z,81.29
2023-06-10T20:58:34.536Z,81.00
2023-06-10T21:02:36.045Z,81.35
2023-06-10T21:06:38.903Z,81.65
2023-06-10T21:10:40.451Z,82.09
2023-06-10T21:14:41.902Z,80.31
2023-06-10T21:18:43.417Z,79.72
2023-06-10T21:22:46.181Z,79.28
2023-06-10T21:26:47.649Z,78.34
2023-06-10T21:30:49.989Z,77.80
2023-06-10T21:34:51.440Z,80.26
2023-06-10T21:38:54.213Z,78.59
2023-06-10T21:42:55.647Z,79.48
2023-06-10T21:46:57.079Z,78.07
2023-06-10T21:50:58.785Z,80.50
2023-06-10T21:55:01.802Z,78.30
2023-06-10T21:59:03.515Z,79.12
2023-06-10T22:03:05.190Z,76.51
2023-06-10T22:07:06.835Z,75.51
2023-06-10T22:11:09.676Z,75.10
2023-06-10T22:15:12.329Z,74.26
2023-06-10T22:19:13.996Z,76.71
2023-06-10T22:23:19.380Z,76.82
2023-06-10T22:27:22.225Z,74.49
2023-06-10T22:31:23.802Z,76.06
2023-06-10T22:35:25.252Z,75.47
2023-06-10T22:39:26.683Z,75.01
2023-06-10T22:43:29.443Z,76.13
2023-06-10T22:47:30.940Z,74.18
2023-06-10T22:51:32.913Z,72.74
2023-06-10T22:55:34.352Z,73.77
2023-06-10T22:59:37.130Z,73.83
2023-06-10T23:03:38.629Z,76.29
2023-06-10T23:07:40.096Z,76.28
2023-06-10T23:11:41.558Z,72.90
2023-06-10T23:15:44.420Z,75.91
2023-06-10T23:19:45.889Z,76.78
2023-06-10T23:23:47.518Z,75.97
2023-06-10T23:27:49.168Z,75.19
2023-06-10T23:31:52.629Z,74.97
2023-06-10T23:35:54.348Z,72.65
2023-06-10T23:39:55.803Z,76.33
2023-06-10T23:43:57.237Z,74.12
2023-06-10T23:48:00.359Z,77.48
2023-06-10T23:52:01.915Z,76.97
2023-06-10T23:56:03.380Z,78.35
